sensor_id;sensor_type;location;lat;lon;timestamp;pressure;altitude;pressure_sealevel;temperature;humidity
54389;BME280;40975;50.390;8.640;2023-02-01T00:02:23;99509.22;;;3.22;100.00
54389;BME280;40975;50.390;8.640;2023-02-01T00:04:49;99514.47;;;3.22;100.00
54389;BME280;40975;50.390;8.640;2023-02-01T00:07:14;99511.09;;;3.20;100.00
54389;BME280;40975;50.390;8.640;2023-02-01T00:09:39;99508.56;;;3.18;100.00
54389;BME280;40975;50.390;8.640;2023-02-01T00:12:05;99498.72;;;3.22;100.00
54389;BME280;40975;50.390;8.640;2023-02-01T00:14:30;99502.94;;;3.24;100.00
54389;BME280;40975;50.390;8.640;2023-02-01T00:16:57;99493.22;;;3.26;100.00
54389;BME280;40975;50.390;8.640;2023-02-01T00:19:22;99488.72;;;3.29;100.00
54389;BME280;40975;50.390;8.640;2023-02-01T00:21:48;99485.91;;;3.32;100.00
54389;BME280;40975;50.390;8.640;2023-02-01T00:24:13;99479.66;;;3.34;100.00
54389;BME280;40975;50.390;8.640;2023-02-01T00:26:41;99475.22;;;3.35;100.00
54389;BME280;40975;50.390;8.640;2023-02-01T00:29:18;99474.28;;;3.36;100.00
54389;BME280;40975;50.390;8.640;2023-02-01T00:31:44;99476.75;;;3.39;100.00
54389;BME280;40975;50.390;8.640;2023-02-01T00:34:15;99472.16;;;3.42;100.00
54389;BME280;40975;50.390;8.640;2023-02-01T00:36:41;99462.13;;;3.49;100.00
54389;BME280;40975;50.390;8.640;2023-02-01T00:39:07;99475.25;;;3.49;100.00
54389;BME280;40975;50.390;8.640;2023-02-01T00:41:32;99482.84;;;3.54;100.00
54389;BME280;40975;50.390;8.640;2023-02-01T00:43:58;99474.69;;;3.58;100.00
54389;BME280;40975;50.390;8.640;2023-02-01T00:46:23;99476.34;;;3.60;100.00
54389;BME280;40975;50.390;8.640;2023-02-01T00:48:49;99477.22;;;3.60;100.00
54389;BME280;40975;50.390;8.640;2023-02-01T00:51:16;99480.59;;;3.62;100.00
54389;BME280;40975;50.390;8.640;2023-02-01T00:53:42;99469.06;;;3.65;100.00
54389;BME280;40975;50.390;8.640;2023-02-01T00:56:08;99469.25;;;3.62;100.00
54389;BME280;40975;50.390;8.640;2023-02-01T00:58:34;99464.63;;;3.65;100.00
54389;BME280;40975;50.390;8.640;2023-02-01T01:01:24;99472.16;;;3.71;100.00
54389;BME280;40975;50.390;8.640;2023-02-01T01:03:55;99453.69;;;3.73;100.00
54389;BME280;40975;50.390;8.640;2023-02-01T01:06:24;99457.06;;;3.75;100.00
54389;BME280;40975;50.390;8.640;2023-02-01T01:08:54;99459.56;;;3.77;100.00
54389;BME280;40975;50.390;8.640;2023-02-01T01:11:23;99470.06;;;3.77;100.00
54389;BME280;40975;50.390;8.640;2023-02-01T01:13:50;99482.84;;;3.83;100.00
54389;BME280;40975;50.390;8.640;2023-02-01T01:16:17;99469.06;;;3.79;100.00
54389;BME280;40975;50.390;8.640;2023-02-01T01:18:43;99473.28;;;3.82;100.00
54389;BME280;40975;50.390;8.640;2023-02-01T01:21:12;99480.00;;;3.86;100.00
54389;BME280;40975;50.390;8.640;2023-02-01T01:23:38;99466.16;;;3.84;100.00
54389;BME280;40975;50.390;8.640;2023-02-01T01:26:08;99468.78;;;3.84;100.00
54389;BME280;40975;50.390;8.640;2023-02-01T01:28:34;99445.22;;;3.82;100.00
54389;BME280;40975;50.390;8.640;2023-02-01T01:30:59;99439.91;;;3.84;100.00
54389;BME280;40975;50.390;8.640;2023-02-01T01:33:24;99452.00;;;3.86;100.00
54389;BME280;40975;50.390;8.640;2023-02-01T01:35:50;99447.38;;;3.90;100.00
54389;BME280;40975;50.390;8.640;2023-02-01T01:38:15;99454.31;;;3.91;100.00
54389;BME280;40975;50.390;8.640;2023-02-01T01:40:44;99457.88;;;3.90;100.00
54389;BME280;40975;50.390;8.640;2023-02-01T01:43:15;99464.66;;;3.94;100.00
54389;BME280;40975;50.390;8.640;2023-02-01T01:45:40;99458.34;;;3.97;100.00
54389;BME280;40975;50.390;8.640;2023-02-01T01:48:18;99448.69;;;3.97;100.00
54389;BME280;40975;50.390;8.640;2023-02-01T01:50:52;99437.13;;;4.00;100.00
54389;BME280;40975;50.390;8.640;2023-02-01T01:53:23;99426.53;;;4.01;100.00
54389;BME280;40975;50.390;8.640;2023-02-01T01:55:51;99430.66;;;4.05;100.00
54389;BME280;40975;50.390;8.640;2023-02-01T01:58:19;99417.63;;;4.04;100.00
54389;BME280;40975;50.390;8.640;2023-02-01T02:00:47;99418.25;;;4.08;100.00
54389;BME280;40975;50.390;8.640;2023-02-01T02:03:25;99411.44;;;4.05;100.00
54389;BME280;40975;50.390;8.640;2023-02-01T02:05:53;99407.75;;;4.08;100.00
54389;BME280;40975;50.390;8.640;2023-02-01T02:08:20;99406.72;;;4.10;100.00
54389;BME280;40975;50.390;8.640;2023-02-01T02:10:48;99398.75;;;4.12;100.00
54389;BME280;40975;50.390;8.640;2023-02-01T02:13:34;99398.94;;;4.09;100.00
54389;BME280;40975;50.390;8.640;2023-02-01T02:19:09;99403.78;;;4.15;100.00
54389;BME280;40975;50.390;8.640;2023-02-01T02:30:02;99431.22;;;4.11;100.00
54389;BME280;40975;50.390;8.640;2023-02-01T02:35:30;99424.16;;;4.11;100.00
54389;BME280;40975;50.390;8.640;2023-02-01T02:38:15;99427.25;;;4.18;100.00
54389;BME280;40975;50.390;8.640;2023-02-01T02:43:27;99412.63;;;4.14;100.00
54389;BME280;40975;50.390;8.640;2023-02-01T02:46:29;99411.13;;;4.10;100.00
54389;BME280;40975;50.390;8.640;2023-02-01T02:49:23;99403.44;;;4.07;100.00
54389;BME280;40975;50.390;8.640;2023-02-01T02:52:13;99408.50;;;4.10;100.00
54389;BME280;40975;50.390;8.640;2023-02-01T02:55:00;99411.31;;;4.07;100.00
54389;BME280;40975;50.390;8.640;2023-02-01T02:57:40;99397.84;;;3.98;100.00
54389;BME280;40975;50.390;8.640;2023-02-01T03:00:32;99399.22;;;4.04;100.00
54389;BME280;40975;50.390;8.640;2023-02-01T03:03:17;99397.66;;;4.01;100.00
54389;BME280;40975;50.390;8.640;2023-02-01T03:06:01;99386.75;;;4.08;100.00
54389;BME280;40975;50.390;8.640;2023-02-01T03:08:28;99380.66;;;4.07;100.00
54389;BME280;40975;50.390;8.640;2023-02-01T03:11:04;99386.38;;;4.14;100.00
54389;BME280;40975;50.390;8.640;2023-02-01T03:13:52;99383.00;;;4.12;100.00
54389;BME280;40975;50.390;8.640;2023-02-01T03:16:36;99389.28;;;4.09;100.00
54389;BME280;40975;50.390;8.640;2023-02-01T03:19:23;99371.16;;;4.04;100.00
54389;BME280;40975;50.390;8.640;2023-02-01T03:21:53;99375.41;;;4.07;100.00
54389;BME280;40975;50.390;8.640;2023-02-01T03:24:25;99372.88;;;4.05;100.00
54389;BME280;40975;50.390;8.640;2023-02-01T03:27:11;99364.97;;;4.05;100.00
54389;BME280;40975;50.390;8.640;2023-02-01T03:29:52;99376.41;;;4.19;100.00
54389;BME280;40975;50.390;8.640;2023-02-01T03:32:20;99386.91;;;4.19;100.00
54389;BME280;40975;50.390;8.640;2023-02-01T03:34:47;99372.66;;;4.09;100.00
54389;BME280;40975;50.390;8.640;2023-02-01T03:37:17;99369.50;;;4.03;100.00
54389;BME280;40975;50.390;8.640;2023-02-01T03:39:57;99363.22;;;4.06;100.00
54389;BME280;40975;50.390;8.640;2023-02-01T03:42:28;99358.56;;;3.97;100.00
54389;BME280;40975;50.390;8.640;2023-02-01T03:45:18;99353.19;;;3.98;100.00
54389;BME280;40975;50.390;8.640;2023-02-01T03:47:48;99350.16;;;4.04;100.00
54389;BME280;40975;50.390;8.640;2023-02-01T03:50:22;99337.03;;;4.04;100.00
54389;BME280;40975;50.390;8.640;2023-02-01T03:52:59;99341.44;;;4.04;100.00
54389;BME280;40975;50.390;8.640;2023-02-01T03:55:27;99342.19;;;4.06;100.00
54389;BME280;40975;50.390;8.640;2023-02-01T03:58:09;99335.38;;;4.03;100.00
54389;BME280;40975;50.390;8.640;2023-02-01T04:00:36;99349.53;;;4.01;100.00
54389;BME280;40975;50.390;8.640;2023-02-01T04:03:04;99362.75;;;3.99;100.00
54389;BME280;40975;50.390;8.640;2023-02-01T04:05:29;99364.25;;;4.03;100.00
54389;BME280;40975;50.390;8.640;2023-02-01T04:08:00;99368.16;;;4.11;100.00
54389;BME280;40975;50.390;8.640;2023-02-01T04:10:25;99365.72;;;4.08;100.00
54389;BME280;40975;50.390;8.640;2023-02-01T04:12:51;99369.59;;;4.02;100.00
54389;BME280;40975;50.390;8.640;2023-02-01T04:15:17;99370.78;;;4.11;100.00
54389;BME280;40975;50.390;8.640;2023-02-01T04:17:42;99370.03;;;4.09;100.00
54389;BME280;40975;50.390;8.640;2023-02-01T04:20:08;99373.06;;;4.02;100.00
54389;BME280;40975;50.390;8.640;2023-02-01T04:22:34;99375.19;;;4.10;100.00
54389;BME280;40975;50.390;8.640;2023-02-01T04:25:00;99366.78;;;4.05;100.00
54389;BME280;40975;50.390;8.640;2023-02-01T04:27:26;99379.50;;;4.11;100.00
54389;BME280;40975;50.390;8.640;2023-02-01T04:29:51;99373.53;;;4.09;100.00
54389;BME280;40975;50.390;8.640;2023-02-01T04:32:17;99368.06;;;4.12;100.00
54389;BME280;40975;50.390;8.640;2023-02-01T04:34:43;99359.34;;;4.12;100.00
54389;BME280;40975;50.390;8.640;2023-02-01T04:37:08;99373.72;;;4.06;100.00
54389;BME280;40975;50.390;8.640;2023-02-01T04:39:33;99371.28;;;4.03;100.00
54389;BME280;40975;50.390;8.640;2023-02-01T04:41:59;99367.19;;;3.99;100.00
54389;BME280;40975;50.390;8.640;2023-02-01T04:44:24;99367.06;;;4.00;100.00
54389;BME280;40975;50.390;8.640;2023-02-01T04:46:49;99350.13;;;3.92;100.00
54389;BME280;40975;50.390;8.640;2023-02-01T04:49:15;99355.59;;;3.88;100.00
54389;BME280;40975;50.390;8.640;2023-02-01T04:51:41;99353.50;;;3.94;100.00
54389;BME280;40975;50.390;8.640;2023-02-01T04:54:07;99350.03;;;3.93;100.00
54389;BME280;40975;50.390;8.640;2023-02-01T04:56:33;99360.63;;;3.92;100.00
54389;BME280;40975;50.390;8.640;2023-02-01T04:59:00;99365.97;;;3.90;100.00
54389;BME280;40975;50.390;8.640;2023-02-01T05:01:25;99363.53;;;3.87;100.00
54389;BME280;40975;50.390;8.640;2023-02-01T05:03:50;99365.34;;;3.86;100.00
54389;BME280;40975;50.390;8.640;2023-02-01T05:06:16;99361.03;;;3.85;100.00
54389;BME280;40975;50.390;8.640;2023-02-01T05:08:41;99359.34;;;3.84;100.00
54389;BME280;40975;50.390;8.640;2023-02-01T05:11:07;99358.41;;;3.85;100.00
54389;BME280;40975;50.390;8.640;2023-02-01T05:13:52;99361.84;;;3.86;100.00
54389;BME280;40975;50.390;8.640;2023-02-01T05:16:17;99366.47;;;3.82;100.00
54389;BME280;40975;50.390;8.640;2023-02-01T05:18:42;99369.19;;;3.81;100.00
54389;BME280;40975;50.390;8.640;2023-02-01T05:21:08;99350.69;;;3.82;100.00
54389;BME280;40975;50.390;8.640;2023-02-01T05:23:33;99359.72;;;3.78;100.00
54389;BME280;40975;50.390;8.640;2023-02-01T05:26:18;99351.84;;;3.78;100.00
54389;BME280;40975;50.390;8.640;2023-02-01T05:28:44;99338.28;;;3.71;100.00
54389;BME280;40975;50.390;8.640;2023-02-01T05:31:10;99328.44;;;3.61;100.00
54389;BME280;40975;50.390;8.640;2023-02-01T05:33:35;99331.34;;;3.70;100.00
54389;BME280;40975;50.390;8.640;2023-02-01T05:36:01;99338.06;;;3.74;100.00
54389;BME280;40975;50.390;8.640;2023-02-01T05:38:26;99328.59;;;3.72;100.00
54389;BME280;40975;50.390;8.640;2023-02-01T05:40:51;99323.66;;;3.67;100.00
54389;BME280;40975;50.390;8.640;2023-02-01T05:43:17;99332.38;;;3.68;100.00
54389;BME280;40975;50.390;8.640;2023-02-01T05:45:42;99334.59;;;3.74;100.00
54389;BME280;40975;50.390;8.640;2023-02-01T05:48:07;99315.69;;;3.69;100.00
54389;BME280;40975;50.390;8.640;2023-02-01T05:50:33;99316.63;;;3.68;100.00
54389;BME280;40975;50.390;8.640;2023-02-01T05:52:58;99323.75;;;3.66;100.00
54389;BME280;40975;50.390;8.640;2023-02-01T05:55:23;99330.47;;;3.70;100.00
54389;BME280;40975;50.390;8.640;2023-02-01T05:57:48;99330.28;;;3.73;100.00
54389;BME280;40975;50.390;8.640;2023-02-01T06:00:14;99323.28;;;3.73;100.00
54389;BME280;40975;50.390;8.640;2023-02-01T06:02:40;99315.78;;;3.67;100.00
54389;BME280;40975;50.390;8.640;2023-02-01T06:05:06;99323.47;;;3.70;100.00
54389;BME280;40975;50.390;8.640;2023-02-01T06:07:31;99337.53;;;3.69;100.00
54389;BME280;40975;50.390;8.640;2023-02-01T06:09:57;99338.56;;;3.67;100.00
54389;BME280;40975;50.390;8.640;2023-02-01T06:12:22;99339.88;;;3.60;100.00
54389;BME280;40975;50.390;8.640;2023-02-01T06:14:48;99349.72;;;3.56;100.00
54389;BME280;40975;50.390;8.640;2023-02-01T06:17:13;99342.25;;;3.50;100.00
54389;BME280;40975;50.390;8.640;2023-02-01T06:19:38;99344.03;;;3.49;100.00
54389;BME280;40975;50.390;8.640;2023-02-01T06:22:05;99337.19;;;3.47;100.00
54389;BME280;40975;50.390;8.640;2023-02-01T06:24:31;99329.69;;;3.40;100.00
54389;BME280;40975;50.390;8.640;2023-02-01T06:26:56;99337.47;;;3.42;100.00
54389;BME280;40975;50.390;8.640;2023-02-01T06:29:21;99339.56;;;3.37;100.00
54389;BME280;40975;50.390;8.640;2023-02-01T06:31:47;99341.53;;;3.33;100.00
54389;BME280;40975;50.390;8.640;2023-02-01T06:34:12;99339.16;;;3.43;100.00
54389;BME280;40975;50.390;8.640;2023-02-01T06:36:37;99348.72;;;3.44;100.00
54389;BME280;40975;50.390;8.640;2023-02-01T06:39:03;99362.50;;;3.33;100.00
54389;BME280;40975;50.390;8.640;2023-02-01T06:41:29;99357.56;;;3.29;100.00
54389;BME280;40975;50.390;8.640;2023-02-01T06:43:54;99364.47;;;3.30;100.00
54389;BME280;40975;50.390;8.640;2023-02-01T06:46:20;99339.34;;;3.40;100.00
54389;BME280;40975;50.390;8.640;2023-02-01T06:48:45;99343.38;;;3.46;100.00
54389;BME280;40975;50.390;8.640;2023-02-01T06:51:22;99342.66;;;3.44;100.00
54389;BME280;40975;50.390;8.640;2023-02-01T06:53:47;99336.00;;;3.38;100.00
54389;BME280;40975;50.390;8.640;2023-02-01T06:56:13;99338.91;;;3.33;100.00
54389;BME280;40975;50.390;8.640;2023-02-01T06:58:38;99327.19;;;3.39;100.00
54389;BME280;40975;50.390;8.640;2023-02-01T07:01:06;99318.09;;;3.30;100.00
54389;BME280;40975;50.390;8.640;2023-02-01T07:03:31;99319.22;;;3.40;100.00
54389;BME280;40975;50.390;8.640;2023-02-01T07:05:57;99311.53;;;3.37;100.00
54389;BME280;40975;50.390;8.640;2023-02-01T07:08:29;99312.28;;;3.39;100.00
54389;BME280;40975;50.390;8.640;2023-02-01T07:10:55;99320.59;;;3.46;100.00
54389;BME280;40975;50.390;8.640;2023-02-01T07:13:20;99318.22;;;3.56;100.00
54389;BME280;40975;50.390;8.640;2023-02-01T07:15:46;99331.91;;;3.61;100.00
54389;BME280;40975;50.390;8.640;2023-02-01T07:18:15;99349.72;;;3.70;100.00
54389;BME280;40975;50.390;8.640;2023-02-01T07:20:41;99349.41;;;3.75;100.00
54389;BME280;40975;50.390;8.640;2023-02-01T07:23:09;99346.91;;;3.73;100.00
54389;BME280;40975;50.390;8.640;2023-02-01T07:25:35;99360.75;;;3.76;100.00
54389;BME280;40975;50.390;8.640;2023-02-01T07:28:00;99371.72;;;3.82;100.00
54389;BME280;40975;50.390;8.640;2023-02-01T07:30:25;99362.66;;;4.01;100.00
54389;BME280;40975;50.390;8.640;2023-02-01T07:32:51;99369.69;;;4.00;100.00
54389;BME280;40975;50.390;8.640;2023-02-01T07:35:16;99369.41;;;4.05;100.00
54389;BME280;40975;50.390;8.640;2023-02-01T07:37:41;99380.09;;;4.02;100.00
54389;BME280;40975;50.390;8.640;2023-02-01T07:40:08;99372.97;;;4.04;100.00
54389;BME280;40975;50.390;8.640;2023-02-01T07:42:34;99372.78;;;4.07;100.00
54389;BME280;40975;50.390;8.640;2023-02-01T07:44:59;99374.06;;;4.14;100.00
54389;BME280;40975;50.390;8.640;2023-02-01T07:47:24;99376.41;;;4.19;100.00
54389;BME280;40975;50.390;8.640;2023-02-01T07:49:50;99375.16;;;4.25;100.00
54389;BME280;40975;50.390;8.640;2023-02-01T07:52:15;99383.06;;;4.38;100.00
54389;BME280;40975;50.390;8.640;2023-02-01T07:54:43;99373.50;;;4.36;100.00
54389;BME280;40975;50.390;8.640;2023-02-01T07:57:08;99381.31;;;4.38;100.00
54389;BME280;40975;50.390;8.640;2023-02-01T07:59:36;99381.69;;;4.32;100.00
54389;BME280;40975;50.390;8.640;2023-02-01T08:02:21;99373.34;;;4.25;100.00
54389;BME280;40975;50.390;8.640;2023-02-01T08:04:47;99380.63;;;4.34;100.00
54389;BME280;40975;50.390;8.640;2023-02-01T08:07:12;99394.53;;;4.36;100.00
54389;BME280;40975;50.390;8.640;2023-02-01T08:09:37;99390.13;;;4.37;100.00
54389;BME280;40975;50.390;8.640;2023-02-01T08:12:03;99388.81;;;4.30;100.00
54389;BME280;40975;50.390;8.640;2023-02-01T08:14:28;99392.41;;;4.29;100.00
54389;BME280;40975;50.390;8.640;2023-02-01T08:16:53;99401.97;;;4.30;100.00
54389;BME280;40975;50.390;8.640;2023-02-01T08:19:19;99407.31;;;4.28;100.00
54389;BME280;40975;50.390;8.640;2023-02-01T08:21:44;99404.72;;;4.41;100.00
54389;BME280;40975;50.390;8.640;2023-02-01T08:24:09;99412.63;;;4.41;100.00
54389;BME280;40975;50.390;8.640;2023-02-01T08:26:35;99401.56;;;4.36;100.00
54389;BME280;40975;50.390;8.640;2023-02-01T08:29:02;99406.41;;;4.42;100.00
54389;BME280;40975;50.390;8.640;2023-02-01T08:31:29;99413.97;;;4.34;100.00
54389;BME280;40975;50.390;8.640;2023-02-01T08:34:00;99402.22;;;4.40;100.00
54389;BME280;40975;50.390;8.640;2023-02-01T08:36:28;99411.78;;;4.41;100.00
54389;BME280;40975;50.390;8.640;2023-02-01T08:38:53;99399.13;;;4.33;100.00
54389;BME280;40975;50.390;8.640;2023-02-01T08:41:21;99408.88;;;4.58;100.00
54389;BME280;40975;50.390;8.640;2023-02-01T08:43:47;99398.69;;;4.66;100.00
54389;BME280;40975;50.390;8.640;2023-02-01T08:46:13;99402.06;;;4.69;100.00
54389;BME280;40975;50.390;8.640;2023-02-01T08:48:39;99403.34;;;4.76;100.00
54389;BME280;40975;50.390;8.640;2023-02-01T08:51:08;99405.88;;;4.77;100.00
54389;BME280;40975;50.390;8.640;2023-02-01T08:53:34;99398.50;;;4.70;100.00
54389;BME280;40975;50.390;8.640;2023-02-01T08:56:01;99397.78;;;4.80;100.00
54389;BME280;40975;50.390;8.640;2023-02-01T08:58:26;99400.00;;;4.74;100.00
54389;BME280;40975;50.390;8.640;2023-02-01T09:00:51;99398.94;;;4.63;100.00
54389;BME280;40975;50.390;8.640;2023-02-01T09:03:17;99406.16;;;4.60;100.00
54389;BME280;40975;50.390;8.640;2023-02-01T09:05:42;99406.25;;;4.58;100.00
54389;BME280;40975;50.390;8.640;2023-02-01T09:08:08;99408.66;;;4.48;100.00
54389;BME280;40975;50.390;8.640;2023-02-01T09:10:34;99404.34;;;4.47;100.00
54389;BME280;40975;50.390;8.640;2023-02-01T09:13:01;99403.31;;;4.50;100.00
54389;BME280;40975;50.390;8.640;2023-02-01T09:15:26;99403.00;;;4.55;100.00
54389;BME280;40975;50.390;8.640;2023-02-01T09:17:51;99415.09;;;4.57;100.00
54389;BME280;40975;50.390;8.640;2023-02-01T09:20:17;99417.41;;;4.62;100.00
54389;BME280;40975;50.390;8.640;2023-02-01T09:22:44;99413.53;;;4.67;100.00
54389;BME280;40975;50.390;8.640;2023-02-01T09:25:09;99419.34;;;4.73;100.00
54389;BME280;40975;50.390;8.640;2023-02-01T09:27:35;99415.25;;;4.81;100.00
54389;BME280;40975;50.390;8.640;2023-02-01T09:30:00;99415.88;;;4.85;100.00
54389;BME280;40975;50.390;8.640;2023-02-01T09:32:26;99412.63;;;4.81;100.00
54389;BME280;40975;50.390;8.640;2023-02-01T09:34:52;99416.41;;;4.77;100.00
54389;BME280;40975;50.390;8.640;2023-02-01T09:37:18;99406.97;;;4.88;100.00
54389;BME280;40975;50.390;8.640;2023-02-01T09:39:43;99423.56;;;4.88;100.00
54389;BME280;40975;50.390;8.640;2023-02-01T09:48:15;99420.44;;;5.09;100.00
54389;BME280;40975;50.390;8.640;2023-02-01T09:50:45;99417.63;;;5.12;100.00
54389;BME280;40975;50.390;8.640;2023-02-01T09:53:27;99415.59;;;5.28;100.00
54389;BME280;40975;50.390;8.640;2023-02-01T09:56:04;99406.34;;;5.23;100.00
54389;BME280;40975;50.390;8.640;2023-02-01T09:58:41;99414.13;;;5.37;100.00
54389;BME280;40975;50.390;8.640;2023-02-01T10:01:15;99405.69;;;5.58;100.00
54389;BME280;40975;50.390;8.640;2023-02-01T10:03:41;99406.94;;;5.65;100.00
54389;BME280;40975;50.390;8.640;2023-02-01T10:06:25;99400.97;;;6.00;99.58
54389;BME280;40975;50.390;8.640;2023-02-01T10:09:16;99401.31;;;6.20;98.93
54389;BME280;40975;50.390;8.640;2023-02-01T10:12:17;99398.25;;;6.26;98.13
54389;BME280;40975;50.390;8.640;2023-02-01T10:23:00;99366.75;;;7.19;91.38
54389;BME280;40975;50.390;8.640;2023-02-01T10:25:55;99358.16;;;7.94;88.55
54389;BME280;40975;50.390;8.640;2023-02-01T10:28:22;99360.88;;;7.38;87.60
54389;BME280;40975;50.390;8.640;2023-02-01T10:30:53;99360.84;;;7.72;86.16
54389;BME280;40975;50.390;8.640;2023-02-01T10:33:25;99355.31;;;6.95;89.69
54389;BME280;40975;50.390;8.640;2023-02-01T10:35:58;99363.75;;;6.65;93.03
54389;BME280;40975;50.390;8.640;2023-02-01T10:38:29;99360.19;;;6.77;92.88
54389;BME280;40975;50.390;8.640;2023-02-01T10:40:59;99356.84;;;6.87;91.27
54389;BME280;40975;50.390;8.640;2023-02-01T10:43:25;99355.78;;;6.78;91.36
54389;BME280;40975;50.390;8.640;2023-02-01T10:45:51;99350.47;;;6.66;92.57
54389;BME280;40975;50.390;8.640;2023-02-01T10:48:16;99349.97;;;6.61;92.54
54389;BME280;40975;50.390;8.640;2023-02-01T10:51:05;99360.47;;;6.50;92.46
54389;BME280;40975;50.390;8.640;2023-02-01T10:53:35;99356.84;;;6.40;94.88
54389;BME280;40975;50.390;8.640;2023-02-01T10:56:09;99350.63;;;6.41;93.37
54389;BME280;40975;50.390;8.640;2023-02-01T10:58:36;99345.69;;;6.83;93.19
54389;BME280;40975;50.390;8.640;2023-02-01T11:01:03;99348.66;;;6.67;91.39
54389;BME280;40975;50.390;8.640;2023-02-01T11:03:41;99340.91;;;6.77;91.78
54389;BME280;40975;50.390;8.640;2023-02-01T11:08:51;99359.47;;;6.40;92.74
54389;BME280;40975;50.390;8.640;2023-02-01T11:11:19;99352.25;;;6.06;93.90
54389;BME280;40975;50.390;8.640;2023-02-01T11:13:52;99343.69;;;6.15;93.81
54389;BME280;40975;50.390;8.640;2023-02-01T11:16:18;99339.47;;;6.13;94.17
54389;BME280;40975;50.390;8.640;2023-02-01T11:18:44;99337.91;;;6.10;94.71
54389;BME280;40975;50.390;8.640;2023-02-01T11:21:10;99350.06;;;6.24;95.79
54389;BME280;40975;50.390;8.640;2023-02-01T11:23:41;99337.72;;;6.25;95.88
54389;BME280;40975;50.390;8.640;2023-02-01T11:26:13;99335.97;;;6.01;95.37
54389;BME280;40975;50.390;8.640;2023-02-01T11:28:40;99334.13;;;6.26;95.58
54389;BME280;40975;50.390;8.640;2023-02-01T11:31:12;99342.03;;;6.26;95.05
54389;BME280;40975;50.390;8.640;2023-02-01T11:33:47;99347.72;;;6.08;94.93
54389;BME280;40975;50.390;8.640;2023-02-01T11:36:18;99356.59;;;6.07;96.20
54389;BME280;40975;50.390;8.640;2023-02-01T11:39:09;99356.41;;;5.97;96.82
54389;BME280;40975;50.390;8.640;2023-02-01T11:42:26;99358.25;;;6.08;96.54
54389;BME280;40975;50.390;8.640;2023-02-01T11:44:35;99354.34;;;6.14;96.51
54389;BME280;40975;50.390;8.640;2023-02-01T11:49:47;99337.25;;;6.19;95.76
54389;BME280;40975;50.390;8.640;2023-02-01T11:55:37;99336.22;;;6.33;95.88
54389;BME280;40975;50.390;8.640;2023-02-01T12:05:56;99330.44;;;6.75;94.69
54389;BME280;40975;50.390;8.640;2023-02-01T12:08:56;99321.88;;;7.07;91.87
54389;BME280;40975;50.390;8.640;2023-02-01T12:11:39;99311.50;;;7.72;90.25
54389;BME280;40975;50.390;8.640;2023-02-01T12:19:58;99299.13;;;7.73;86.53
54389;BME280;40975;50.390;8.640;2023-02-01T12:22:50;99306.03;;;7.53;87.27
54389;BME280;40975;50.390;8.640;2023-02-01T12:28:18;99293.34;;;8.12;84.08
54389;BME280;40975;50.390;8.640;2023-02-01T12:30:57;99305.66;;;8.01;84.55
54389;BME280;40975;50.390;8.640;2023-02-01T12:39:14;99289.44;;;7.62;85.87
54389;BME280;40975;50.390;8.640;2023-02-01T12:44:20;99298.84;;;7.21;88.98
54389;BME280;40975;50.390;8.640;2023-02-01T12:46:53;99292.69;;;7.31;87.60
54389;BME280;40975;50.390;8.640;2023-02-01T12:49:34;99283.22;;;7.06;87.80
54389;BME280;40975;50.390;8.640;2023-02-01T12:52:10;99283.13;;;6.85;88.86
54389;BME280;40975;50.390;8.640;2023-02-01T12:55:21;99278.31;;;7.02;89.08
54389;BME280;40975;50.390;8.640;2023-02-01T12:58:18;99265.13;;;7.13;88.43
54389;BME280;40975;50.390;8.640;2023-02-01T13:01:02;99265.00;;;7.14;88.94
54389;BME280;40975;50.390;8.640;2023-02-01T13:06:13;99267.41;;;7.06;88.80
54389;BME280;40975;50.390;8.640;2023-02-01T13:08:48;99273.63;;;6.94;88.63
54389;BME280;40975;50.390;8.640;2023-02-01T13:11:39;99282.88;;;6.88;89.55
54389;BME280;40975;50.390;8.640;2023-02-01T13:14:22;99279.38;;;6.76;90.27
54389;BME280;40975;50.390;8.640;2023-02-01T13:17:03;99282.88;;;6.88;89.10
54389;BME280;40975;50.390;8.640;2023-02-01T13:19:45;99285.97;;;6.82;89.11
54389;BME280;40975;50.390;8.640;2023-02-01T13:22:20;99276.53;;;6.91;89.38
54389;BME280;40975;50.390;8.640;2023-02-01T13:24:54;99274.84;;;6.90;89.31
54389;BME280;40975;50.390;8.640;2023-02-01T13:27:21;99269.06;;;6.96;89.65
54389;BME280;40975;50.390;8.640;2023-02-01T13:29:55;99266.78;;;6.91;89.46
54389;BME280;40975;50.390;8.640;2023-02-01T13:35:22;99259.38;;;7.08;88.33
54389;BME280;40975;50.390;8.640;2023-02-01T13:38:15;99256.00;;;7.17;88.42
54389;BME280;40975;50.390;8.640;2023-02-01T13:41:38;99247.81;;;7.20;88.90
54389;BME280;40975;50.390;8.640;2023-02-01T13:43:38;99248.69;;;7.21;88.64
54389;BME280;40975;50.390;8.640;2023-02-01T13:46:09;99246.50;;;7.14;88.18
54389;BME280;40975;50.390;8.640;2023-02-01T13:48:47;99244.13;;;7.23;88.19
54389;BME280;40975;50.390;8.640;2023-02-01T13:51:15;99234.16;;;7.38;87.35
54389;BME280;40975;50.390;8.640;2023-02-01T13:53:46;99231.50;;;7.38;87.77
54389;BME280;40975;50.390;8.640;2023-02-01T13:56:15;99223.13;;;7.21;88.00
54389;BME280;40975;50.390;8.640;2023-02-01T13:58:43;99231.16;;;7.08;88.76
54389;BME280;40975;50.390;8.640;2023-02-01T14:03:51;99236.09;;;7.02;90.05
54389;BME280;40975;50.390;8.640;2023-02-01T14:06:34;99235.72;;;7.06;89.91
54389;BME280;40975;50.390;8.640;2023-02-01T14:11:41;99246.78;;;7.00;90.06
54389;BME280;40975;50.390;8.640;2023-02-01T14:19:31;99248.69;;;6.98;89.83
54389;BME280;40975;50.390;8.640;2023-02-01T14:21:59;99237.69;;;6.93;89.85
54389;BME280;40975;50.390;8.640;2023-02-01T14:24:33;99232.63;;;6.90;89.49
54389;BME280;40975;50.390;8.640;2023-02-01T14:27:01;99228.66;;;6.84;89.29
54389;BME280;40975;50.390;8.640;2023-02-01T14:29:36;99224.56;;;7.14;89.21
54389;BME280;40975;50.390;8.640;2023-02-01T14:32:15;99257.09;;;7.03;89.55
54389;BME280;40975;50.390;8.640;2023-02-01T14:44:42;99231.53;;;6.69;92.28
54389;BME280;40975;50.390;8.640;2023-02-01T14:50:18;99242.78;;;6.37;95.64
54389;BME280;40975;50.390;8.640;2023-02-01T14:52:50;99240.81;;;6.17;96.41
54389;BME280;40975;50.390;8.640;2023-02-01T14:58:26;99254.41;;;6.11;99.48